Time;durP1;ratioP1;P1;durP2;ratioP2;P2;SDS_P1;SDS_P2;PMS_P1;PMS_P2;Temp;Humidity;BMP_temperature;BMP_pressure;BME280_temperature;BME280_humidity;BME280_pressure;Samples;Min_cycle;Max_cycle;Signal;HPM_P1;HPM_P2
2022/01/08 00:00:54;;;;;;;0.55;0.50;;;3.10;99.90;;;;;;5029292;28;20313;-76
2022/01/08 00:03:20;;;;;;;0.50;0.50;;;;;;;;;;5027988;28;20534;-76
2022/01/08 00:05:48;;;;;;;1.35;0.60;;;3.20;99.90;;;;;;4997491;28;20036;-76
2022/01/08 00:08:14;;;;;;;0.70;0.47;;;3.30;99.90;;;;;;4987006;28;20283;-76
2022/01/08 00:10:40;;;;;;;5.75;0.50;;;3.40;99.90;;;;;;4990939;28;20026;-76
2022/01/08 00:13:07;;;;;;;1.50;0.60;;;3.40;99.90;;;;;;4986464;28;20410;-76
2022/01/08 00:15:33;;;;;;;0.55;0.50;;;3.40;99.90;;;;;;4988426;28;20061;-77
2022/01/08 00:17:59;;;;;;;1.17;1.05;;;3.40;99.90;;;;;;5005988;28;20137;-75
2022/01/08 00:20:28;;;;;;;0.43;0.43;;;3.40;99.90;;;;;;4992842;28;20053;-77
2022/01/08 00:22:54;;;;;;;1.02;0.55;;;3.40;99.90;;;;;;5007863;28;20502;-76
2022/01/08 00:25:20;;;;;;;0.63;0.40;;;3.40;99.90;;;;;;5000128;28;20601;-76
2022/01/08 00:27:46;;;;;;;1.08;0.52;;;3.50;99.90;;;;;;4998600;28;20147;-78
2022/01/08 00:30:13;;;;;;;0.32;0.32;;;3.50;99.90;;;;;;4990469;28;20022;-76
2022/01/08 00:32:40;;;;;;;2.17;0.50;;;3.40;99.90;;;;;;5004983;28;20041;-78
2022/01/08 00:35:10;;;;;;;3.33;0.52;;;3.50;99.90;;;;;;5009801;28;20123;-77
2022/01/08 00:37:39;;;;;;;0.47;0.47;;;3.40;99.90;;;;;;5002555;28;20022;-77
2022/01/08 00:40:06;;;;;;;1.38;0.65;;;3.50;99.90;;;;;;4993276;28;20041;-75
2022/01/08 00:42:32;;;;;;;0.35;0.35;;;3.50;99.90;;;;;;5004422;28;20046;-80
2022/01/08 00:44:58;;;;;;;1.65;0.52;;;3.50;99.90;;;;;;5004480;28;20398;-76
2022/01/08 00:47:24;;;;;;;3.10;0.50;;;3.50;99.90;;;;;;4993791;28;20472;-76
2022/01/08 00:49:49;;;;;;;5.25;0.60;;;3.50;99.90;;;;;;4995703;28;20549;-76
2022/01/08 00:52:15;;;;;;;2.33;0.40;;;3.50;99.90;;;;;;4997687;28;20026;-76
2022/01/08 00:54:41;;;;;;;0.30;0.30;;;;;;;;;;4994058;28;20038;-78
2022/01/08 00:57:07;;;;;;;0.32;0.32;;;3.40;99.90;;;;;;4991675;28;20117;-77
2022/01/08 00:59:32;;;;;;;0.47;0.40;;;3.30;99.90;;;;;;4994620;28;20152;-76
2022/01/08 01:01:58;;;;;;;0.75;0.75;;;3.20;99.90;;;;;;5003534;28;20513;-75
2022/01/08 01:04:24;;;;;;;2.08;0.43;;;3.20;99.90;;;;;;4991679;28;20176;-76
2022/01/08 01:06:50;;;;;;;0.60;0.40;;;3.10;99.90;;;;;;4986204;28;20053;-77
2022/01/08 01:09:15;;;;;;;0.68;0.43;;;3.00;99.90;;;;;;5005622;28;20491;-77
2022/01/08 01:11:41;;;;;;;1.40;0.28;;;3.00;99.90;;;;;;4987907;28;20117;-77
2022/01/08 01:16:43;;;;;;;1.43;0.40;;;;;;;;;;6092331;23;20006;-80
2022/01/08 01:19:08;;;;;;;0.45;0.35;;;3.00;99.90;;;;;;4953607;28;20054;-79
2022/01/08 01:21:34;;;;;;;0.20;0.20;;;3.00;99.90;;;;;;4967873;28;20042;-79
2022/01/08 01:24:07;;;;;;;0.20;0.20;;;3.00;99.90;;;;;;4954618;28;20625;-79
2022/01/08 01:26:34;;;;;;;0.30;0.17;;;3.00;99.90;;;;;;4924447;28;20109;-78
2022/01/08 01:29:30;;;;;;;0.30;0.30;;;3.00;99.90;;;;;;4931006;28;20007;-76
2022/01/08 01:48:25;;;;;;;0.20;0.13;;;3.30;99.90;;;;;;4952106;28;20106;-76
2022/01/08 01:50:51;;;;;;;0.80;0.20;;;3.20;99.90;;;;;;4931359;28;20038;-77
2022/01/08 01:53:16;;;;;;;0.13;0.13;;;3.20;99.90;;;;;;4954215;28;20027;-77
2022/01/08 01:55:44;;;;;;;0.47;0.20;;;3.20;99.90;;;;;;4940794;28;20026;-77
2022/01/08 01:58:12;;;;;;;4.47;0.13;;;3.30;99.90;;;;;;4943193;28;20454;-76
2022/01/08 02:00:38;;;;;;;1.80;0.25;;;3.40;99.90;;;;;;4953845;28;20023;-76
2022/01/08 02:03:03;;;;;;;0.20;0.20;;;3.40;99.90;;;;;;4939764;28;20027;-77
2022/01/08 02:05:29;;;;;;;0.45;0.20;;;3.50;99.90;;;;;;4958907;28;20027;-77
2022/01/08 02:07:56;;;;;;;0.28;0.17;;;3.60;99.90;;;;;;4936265;28;20023;-77
2022/01/08 02:10:25;;;;;;;0.17;0.17;;;3.60;99.90;;;;;;4934953;28;20051;-76
2022/01/08 02:12:51;;;;;;;0.20;0.20;;;3.50;99.90;;;;;;4954782;28;20034;-76
2022/01/08 02:15:17;;;;;;;1.13;0.20;;;3.60;99.90;;;;;;4956119;28;20058;-77
2022/01/08 02:17:43;;;;;;;0.10;0.10;;;4.50;99.90;;;;;;4933672;28;20094;-78
2022/01/08 02:20:10;;;;;;;0.20;0.20;;;3.60;99.90;;;;;;4960480;28;20530;-77
2022/01/08 02:22:36;;;;;;;0.10;0.10;;;3.60;99.90;;;;;;4950479;28;20039;-78
2022/01/08 02:25:02;;;;;;;0.10;0.10;;;3.60;99.90;;;;;;4942345;28;20014;-80
2022/01/08 02:27:28;;;;;;;1.08;0.10;;;3.60;99.90;;;;;;4943279;28;20101;-78
2022/01/08 02:29:54;;;;;;;0.10;0.10;;;3.60;99.90;;;;;;4954176;28;20015;-79
2022/01/08 02:32:25;;;;;;;0.20;0.13;;;3.60;99.90;;;;;;4958771;28;20056;-79
2022/01/08 02:34:51;;;;;;;0.10;0.10;;;3.50;99.90;;;;;;4955053;28;20027;-79
2022/01/08 02:37:19;;;;;;;0.10;0.10;;;3.60;99.90;;;;;;4938658;28;20546;-78
2022/01/08 02:39:49;;;;;;;0.10;0.10;;;3.80;99.90;;;;;;4938819;28;20022;-79
2022/01/08 02:42:19;;;;;;;0.10;0.10;;;3.70;99.90;;;;;;4940320;28;20035;-77
2022/01/08 02:44:46;;;;;;;0.00;0.00;;;3.80;99.90;;;;;;4943375;28;20023;-76
2022/01/08 02:47:16;;;;;;;0.15;0.15;;;3.70;99.90;;;;;;4958275;28;20761;-79
2022/01/08 02:49:42;;;;;;;0.10;0.10;;;3.80;99.90;;;;;;4938679;28;20226;-78
2022/01/08 02:52:09;;;;;;;0.38;0.20;;;3.90;99.90;;;;;;4960958;28;20098;-79
2022/01/08 02:54:35;;;;;;;0.10;0.10;;;3.90;99.90;;;;;;4959025;28;20091;-78
2022/01/08 02:57:00;;;;;;;1.13;0.10;;;3.90;99.90;;;;;;4943865;28;20135;-77
2022/01/08 02:59:26;;;;;;;0.10;0.10;;;3.90;99.90;;;;;;4961061;28;20015;-76
2022/01/08 03:01:55;;;;;;;0.10;0.10;;;3.80;99.90;;;;;;4936634;28;20530;-76
2022/01/08 03:04:21;;;;;;;0.20;0.20;;;3.70;99.90;;;;;;4936336;28;20027;-76
2022/01/08 03:06:47;;;;;;;0.10;0.10;;;3.70;99.90;;;;;;4935340;28;20031;-76
2022/01/08 03:09:13;;;;;;;0.10;0.10;;;3.70;99.90;;;;;;4964944;28;20410;-77
2022/01/08 03:11:38;;;;;;;0.20;0.20;;;3.70;99.90;;;;;;4960164;28;20553;-76
2022/01/08 03:14:05;;;;;;;0.10;0.10;;;3.60;99.90;;;;;;4940965;28;20023;-78
2022/01/08 03:16:31;;;;;;;3.97;0.85;;;3.50;99.90;;;;;;4938844;28;20376;-75
2022/01/08 03:18:57;;;;;;;0.08;0.08;;;3.40;99.90;;;;;;4958713;28;20071;-76
2022/01/08 03:21:23;;;;;;;0.43;0.10;;;3.30;99.90;;;;;;4954534;28;20034;-76
2022/01/08 03:23:55;;;;;;;0.10;0.10;;;3.30;99.90;;;;;;4955443;28;20050;-75
2022/01/08 03:26:23;;;;;;;0.30;0.28;;;3.30;99.90;;;;;;4938512;28;20038;-75
2022/01/08 03:28:50;;;;;;;0.10;0.10;;;3.40;99.90;;;;;;4956248;28;20026;-76
2022/01/08 03:31:17;;;;;;;0.10;0.10;;;3.30;99.90;;;;;;4945090;28;20077;-76
2022/01/08 03:33:43;;;;;;;0.10;0.10;;;3.30;99.90;;;;;;4959478;28;20019;-75
2022/01/08 03:36:10;;;;;;;0.10;0.10;;;3.30;99.90;;;;;;4939276;28;20078;-75
2022/01/08 03:38:36;;;;;;;0.13;0.10;;;3.30;99.90;;;;;;4953547;28;20016;-75
2022/01/08 03:41:02;;;;;;;1.38;0.20;;;3.20;99.90;;;;;;4953173;28;20208;-77
2022/01/08 03:43:28;;;;;;;0.10;0.10;;;3.20;99.90;;;;;;4939188;28;20027;-75
2022/01/08 03:45:54;;;;;;;0.10;0.10;;;3.10;99.90;;;;;;4943773;28;20259;-75
2022/01/08 03:48:28;;;;;;;0.10;0.10;;;3.00;99.90;;;;;;4959190;28;20061;-76
2022/01/08 03:50:56;;;;;;;0.10;0.10;;;3.00;99.90;;;;;;4942185;28;20106;-77
2022/01/08 03:53:22;;;;;;;0.17;0.17;;;3.00;99.90;;;;;;4953085;28;20023;-75
2022/01/08 03:55:48;;;;;;;0.20;0.20;;;3.00;99.90;;;;;;4934619;28;20144;-79
2022/01/08 03:58:14;;;;;;;0.30;0.30;;;3.00;99.90;;;;;;4941808;28;20489;-75
2022/01/08 04:00:39;;;;;;;0.20;0.20;;;3.10;99.90;;;;;;4952872;28;20059;-76
2022/01/08 04:03:05;;;;;;;0.43;0.17;;;3.20;99.90;;;;;;4955851;28;20070;-75
2022/01/08 04:05:31;;;;;;;0.20;0.20;;;3.30;99.90;;;;;;4962271;28;20038;-76
2022/01/08 04:07:56;;;;;;;0.17;0.17;;;3.20;99.90;;;;;;4957806;28;20483;-77
2022/01/08 04:10:22;;;;;;;0.43;0.43;;;1.30;99.90;;;;;;4958177;28;20475;-77
2022/01/08 04:12:57;;;;;;;0.65;0.50;;;2.90;99.90;;;;;;4961318;28;20038;-76
2022/01/08 04:17:51;;;;;;;3.92;0.65;;;2.80;99.90;;;;;;4959295;28;20086;-76
2022/01/08 04:20:17;;;;;;;0.25;0.25;;;2.70;99.90;;;;;;4939508;28;20026;-77
2022/01/08 04:22:48;;;;;;;0.30;0.20;;;2.70;99.90;;;;;;4945416;28;20070;-77
2022/01/08 04:25:15;;;;;;;0.43;0.30;;;2.60;99.90;;;;;;4959883;28;20429;-77
2022/01/08 04:27:41;;;;;;;0.95;0.35;;;2.50;99.90;;;;;;4943612;28;20057;-75
2022/01/08 04:30:07;;;;;;;1.17;0.40;;;2.50;99.90;;;;;;4943522;28;20046;-76
2022/01/08 04:32:33;;;;;;;1.35;0.65;;;2.60;99.90;;;;;;4940882;28;20031;-76
2022/01/08 04:34:59;;;;;;;0.68;0.50;;;2.60;99.90;;;;;;4955472;28;20027;-76
2022/01/08 04:37:25;;;;;;;0.98;0.55;;;2.60;99.90;;;;;;4938157;28;20471;-77
2022/01/08 04:39:50;;;;;;;0.22;0.22;;;2.60;99.90;;;;;;4935986;28;20023;-76
2022/01/08 04:42:16;;;;;;;0.40;0.40;;;2.60;99.90;;;;;;4935340;28;20074;-76
2022/01/08 04:44:42;;;;;;;0.47;0.47;;;2.60;99.90;;;;;;4936770;28;20027;-76
2022/01/08 04:47:08;;;;;;;2.17;0.38;;;2.60;99.90;;;;;;4933907;28;20668;-77
2022/01/08 04:49:34;;;;;;;2.35;0.30;;;2.60;99.90;;;;;;4960965;28;20395;-76
2022/01/08 04:51:59;;;;;;;0.57;0.38;;;2.50;99.90;;;;;;4941386;28;20118;-76
2022/01/08 04:54:25;;;;;;;0.40;0.40;;;2.50;99.90;;;;;;4950867;28;20114;-77
2022/01/08 04:56:51;;;;;;;1.02;0.93;;;2.40;99.90;;;;;;4948482;28;20035;-75
2022/01/08 04:59:17;;;;;;;0.43;0.43;;;2.40;99.90;;;;;;4962118;28;20031;-79
2022/01/08 05:01:43;;;;;;;1.05;0.30;;;2.30;99.90;;;;;;4951925;28;20526;-76
2022/01/08 05:04:09;;;;;;;0.57;0.45;;;2.20;99.90;;;;;;4946575;28;20054;-76
2022/01/08 05:06:35;;;;;;;0.40;0.40;;;2.10;99.90;;;;;;4953570;28;20491;-76
2022/01/08 05:09:03;;;;;;;1.10;0.40;;;2.10;99.90;;;;;;4953198;28;20029;-77
2022/01/08 05:11:29;;;;;;;2.58;0.60;;;2.00;99.90;;;;;;4938301;29;20050;-76
2022/01/08 05:13:55;;;;;;;1.45;0.63;;;2.10;99.90;;;;;;4955771;28;20479;-77
2022/01/08 05:16:22;;;;;;;0.98;0.98;;;1.90;99.90;;;;;;4952394;28;20042;-77
2022/01/08 05:18:51;;;;;;;0.73;0.73;;;1.90;99.90;;;;;;4938544;28;20522;-76
2022/01/08 05:23:42;;;;;;;0.50;0.50;;;1.90;99.90;;;;;;4957102;28;20031;-77
2022/01/08 05:26:08;;;;;;;0.82;0.82;;;1.80;99.90;;;;;;4939006;29;20031;-76
2022/01/08 05:28:33;;;;;;;0.40;0.40;;;1.80;99.90;;;;;;4935871;28;20089;-77
2022/01/08 05:30:59;;;;;;;0.88;0.70;;;1.80;99.90;;;;;;4953004;28;20027;-76
2022/01/08 05:33:25;;;;;;;0.85;0.85;;;1.80;99.90;;;;;;4957832;28;20027;-76
2022/01/08 05:35:51;;;;;;;0.60;0.60;;;1.70;99.90;;;;;;4967278;28;20023;-76
2022/01/08 05:38:17;;;;;;;1.67;0.70;;;1.70;99.90;;;;;;4956874;28;20067;-76
2022/01/08 05:40:42;;;;;;;1.02;0.60;;;1.80;99.90;;;;;;4952089;28;20402;-76
2022/01/08 05:43:08;;;;;;;0.68;0.68;;;1.70;99.90;;;;;;4956546;28;20102;-76
2022/01/08 05:45:34;;;;;;;0.45;0.45;;;1.80;99.90;;;;;;4960171;28;20027;-77
2022/01/08 05:47:59;;;;;;;1.90;0.73;;;1.80;99.90;;;;;;4943649;28;20430;-76
2022/01/08 05:50:25;;;;;;;0.60;0.60;;;1.70;99.90;;;;;;4957675;28;20023;-77
2022/01/08 05:52:51;;;;;;;0.80;0.80;;;1.70;99.90;;;;;;4954622;28;20081;-77
2022/01/08 05:55:17;;;;;;;1.17;0.50;;;1.70;99.90;;;;;;4951267;28;20011;-77
2022/01/08 05:57:43;;;;;;;1.27;0.60;;;1.70;99.90;;;;;;4957017;28;20027;-76
2022/01/08 06:00:10;;;;;;;0.70;0.70;;;1.60;99.90;;;;;;4943544;28;20046;-76
2022/01/08 06:02:37;;;;;;;4.07;0.55;;;1.60;99.90;;;;;;4956149;28;20526;-77
2022/01/08 06:05:04;;;;;;;0.63;0.40;;;1.70;99.90;;;;;;4953271;28;20077;-76
2022/01/08 06:07:29;;;;;;;1.38;0.50;;;1.50;99.90;;;;;;4952239;28;20234;-75
2022/01/08 06:09:55;;;;;;;1.27;0.98;;;1.50;99.90;;;;;;4956869;28;20025;-77
2022/01/08 06:12:21;;;;;;;0.40;0.40;;;1.50;99.90;;;;;;4957717;28;20035;-76
2022/01/08 06:14:46;;;;;;;0.50;0.50;;;1.40;99.90;;;;;;4953245;28;20031;-77
2022/01/08 06:17:12;;;;;;;1.85;0.63;;;1.50;99.90;;;;;;4954740;28;20051;-76
2022/01/08 06:19:38;;;;;;;0.70;0.70;;;1.30;99.90;;;;;;4938756;28;20023;-76
2022/01/08 06:22:04;;;;;;;1.55;0.52;;;1.30;99.90;;;;;;4947915;28;20533;-76
2022/01/08 06:24:30;;;;;;;0.60;0.60;;;1.30;99.90;;;;;;4935570;28;20027;-76
2022/01/08 06:26:56;;;;;;;1.48;0.45;;;1.40;99.90;;;;;;4959487;28;20431;-76
2022/01/08 06:29:22;;;;;;;0.73;0.50;;;1.30;99.90;;;;;;4943126;28;20057;-76
2022/01/08 06:31:47;;;;;;;1.67;0.43;;;1.40;99.90;;;;;;4961702;28;20492;-77
2022/01/08 06:34:13;;;;;;;0.50;0.50;;;1.40;99.90;;;;;;4970731;28;20023;-81
2022/01/08 06:36:39;;;;;;;2.28;0.47;;;1.30;99.90;;;;;;4970377;28;20499;-75
2022/01/08 06:39:05;;;;;;;1.08;0.60;;;1.30;99.90;;;;;;4972219;28;20398;-76
2022/01/08 06:41:30;;;;;;;0.75;0.40;;;1.30;99.90;;;;;;4976031;28;20060;-77
2022/01/08 06:43:57;;;;;;;0.57;0.52;;;1.10;99.90;;;;;;4975499;28;20375;-75
2022/01/08 06:46:23;;;;;;;0.47;0.35;;;1.10;99.90;;;;;;4974894;28;20031;-76
2022/01/08 06:48:49;;;;;;;3.65;0.60;;;1.20;99.90;;;;;;4975191;28;20023;-76
2022/01/08 06:51:15;;;;;;;1.00;0.43;;;1.20;99.90;;;;;;4975370;28;20098;-79
2022/01/08 06:53:40;;;;;;;0.50;0.50;;;1.20;99.90;;;;;;4974888;28;20030;-76
2022/01/08 06:56:06;;;;;;;0.47;0.47;;;1.20;99.90;;;;;;4974431;28;20058;-76
2022/01/08 06:58:33;;;;;;;4.65;1.38;;;1.20;99.90;;;;;;4974686;28;20023;-78
2022/01/08 07:00:59;;;;;;;1.08;0.30;;;1.10;99.90;;;;;;4979211;28;20043;-77
2022/01/08 07:03:25;;;;;;;0.30;0.30;;;1.00;99.90;;;;;;4973986;28;20030;-75
2022/01/08 07:05:50;;;;;;;1.45;0.57;;;1.00;99.90;;;;;;4974171;28;20360;-76
2022/01/08 07:08:16;;;;;;;0.30;0.30;;;1.10;99.90;;;;;;4975150;28;20073;-76
2022/01/08 07:10:42;;;;;;;1.67;0.50;;;1.10;99.90;;;;;;4971141;28;20191;-76
2022/01/08 07:13:08;;;;;;;0.57;0.40;;;1.10;99.90;;;;;;4973863;28;20030;-75
2022/01/08 07:15:34;;;;;;;0.40;0.40;;;1.00;99.90;;;;;;4970740;28;20018;-76
2022/01/08 07:18:00;;;;;;;1.45;0.40;;;1.00;99.90;;;;;;4974734;28;20492;-76
2022/01/08 07:20:25;;;;;;;2.10;0.40;;;1.10;99.90;;;;;;4976899;28;20034;-78
2022/01/08 07:22:51;;;;;;;0.57;0.40;;;0.90;99.90;;;;;;4954799;28;20043;-76
2022/01/08 07:25:17;;;;;;;1.52;0.45;;;1.00;99.90;;;;;;4971474;28;20026;-75
2022/01/08 07:27:43;;;;;;;0.35;0.35;;;1.10;99.90;;;;;;4964185;28;20027;-75
2022/01/08 07:30:10;;;;;;;0.40;0.40;;;1.20;99.90;;;;;;4945278;28;20034;-76
2022/01/08 07:32:40;;;;;;;1.08;0.40;;;1.10;99.90;;;;;;4944536;28;20027;-76
2022/01/08 07:35:07;;;;;;;1.17;1.08;;;1.10;99.90;;;;;;4948094;28;20023;-80
2022/01/08 07:37:32;;;;;;;0.70;0.68;;;1.10;99.90;;;;;;4945757;28;20027;-77
2022/01/08 07:39:58;;;;;;;2.20;0.60;;;1.10;99.90;;;;;;4952125;28;20280;-76
2022/01/08 07:42:24;;;;;;;0.60;0.60;;;1.10;99.90;;;;;;4972711;28;20503;-77
2022/01/08 07:44:49;;;;;;;1.15;0.80;;;1.00;99.90;;;;;;4974459;28;20109;-77
2022/01/08 07:47:15;;;;;;;0.75;0.60;;;1.30;99.90;;;;;;4974023;28;20059;-75
2022/01/08 07:49:41;;;;;;;2.47;1.00;;;1.00;99.90;;;;;;4958928;28;20023;-76
2022/01/08 07:52:06;;;;;;;3.17;0.70;;;1.00;99.90;;;;;;4956541;28;20025;-76
2022/01/08 07:54:32;;;;;;;1.70;0.77;;;1.40;99.90;;;;;;4963133;28;20031;-76
2022/01/08 07:56:58;;;;;;;2.65;0.80;;;1.10;99.90;;;;;;4963429;28;20027;-77
2022/01/08 07:59:23;;;;;;;4.43;1.80;;;1.10;99.90;;;;;;4967573;28;20254;-75
2022/01/08 08:01:49;;;;;;;2.92;1.30;;;1.00;99.90;;;;;;4970395;28;20042;-74
2022/01/08 08:04:15;;;;;;;3.67;1.63;;;1.10;99.90;;;;;;4957520;28;20188;-76
2022/01/08 08:06:45;;;;;;;2.15;0.57;;;1.20;99.90;;;;;;4948554;29;20074;-76
2022/01/08 08:09:11;;;;;;;1.52;0.90;;;1.30;99.90;;;;;;4952024;29;20023;-75
2022/01/08 08:11:36;;;;;;;2.55;0.82;;;1.00;99.90;;;;;;4938905;28;20058;-74
2022/01/08 08:14:02;;;;;;;12.63;3.35;;;1.00;99.90;;;;;;4970425;28;20043;-74
2022/01/08 08:16:28;;;;;;;9.00;3.95;;;1.00;99.90;;;;;;4967841;28;20031;-75
2022/01/08 08:18:54;;;;;;;53.38;21.90;;;1.10;99.90;;;;;;4970831;28;20219;-75
2022/01/08 08:21:23;;;;;;;8.45;4.13;;;1.20;99.90;;;;;;4974574;28;20099;-75
2022/01/08 08:23:49;;;;;;;8.98;3.75;;;1.20;99.90;;;;;;4960935;28;20019;-75
2022/01/08 08:26:14;;;;;;;1.08;0.70;;;1.50;99.90;;;;;;4961941;29;20065;-76
2022/01/08 08:28:40;;;;;;;1.27;1.08;;;1.50;99.90;;;;;;4963288;28;20054;-75
2022/01/08 08:31:06;;;;;;;1.77;1.42;;;1.40;99.90;;;;;;4943242;28;20071;-76
2022/01/08 08:33:31;;;;;;;3.20;1.30;;;1.60;99.90;;;;;;4966833;28;20019;-75
2022/01/08 08:35:57;;;;;;;2.33;1.65;;;1.50;99.90;;;;;;4960216;28;20031;-75
2022/01/08 08:38:23;;;;;;;2.90;1.45;;;1.60;99.90;;;;;;4934331;29;20543;-75
2022/01/08 08:40:51;;;;;;;1.60;0.70;;;1.60;99.90;;;;;;4957620;29;20369;-75
2022/01/08 08:43:17;;;;;;;2.78;0.90;;;1.90;99.90;;;;;;4956679;29;20023;-75
2022/01/08 08:45:42;;;;;;;1.60;0.80;;;1.70;99.90;;;;;;4954088;29;20186;-77
2022/01/08 08:48:10;;;;;;;0.75;0.75;;;1.80;99.90;;;;;;4956385;28;20098;-77
2022/01/08 08:50:35;;;;;;;1.75;0.80;;;1.90;99.90;;;;;;4952856;28;20031;-75
2022/01/08 08:53:01;;;;;;;0.88;0.60;;;2.00;99.90;;;;;;4953213;28;20097;-75
2022/01/08 08:55:27;;;;;;;1.45;0.77;;;2.00;99.90;;;;;;4957809;29;20369;-76
2022/01/08 08:57:52;;;;;;;0.55;0.55;;;2.10;99.90;;;;;;4959108;29;20046;-76
2022/01/08 09:00:19;;;;;;;0.70;0.70;;;2.10;99.90;;;;;;4959099;28;20031;-74
2022/01/08 09:02:44;;;;;;;0.73;0.52;;;2.20;99.90;;;;;;4967623;28;20306;-74
2022/01/08 09:05:11;;;;;;;9.18;0.82;;;2.30;99.90;;;;;;4957060;29;20616;-77
2022/01/08 09:07:37;;;;;;;1.60;0.68;;;2.20;99.90;;;;;;4945683;28;20031;-74
2022/01/08 09:10:05;;;;;;;1.13;0.40;;;2.20;99.90;;;;;;4953705;28;20038;-75
2022/01/08 09:12:31;;;;;;;1.63;0.55;;;2.20;99.90;;;;;;4943536;29;20027;-75
2022/01/08 09:14:56;;;;;;;0.63;0.50;;;2.20;99.90;;;;;;4959727;28;20003;-75
2022/01/08 09:17:24;;;;;;;1.75;0.40;;;2.20;99.90;;;;;;4960353;28;20442;-75
2022/01/08 09:19:50;;;;;;;0.40;0.40;;;2.20;99.90;;;;;;4949692;28;20030;-75
2022/01/08 09:22:18;;;;;;;3.47;0.65;;;2.20;99.90;;;;;;4970192;28;20051;-74
2022/01/08 09:24:45;;;;;;;0.70;0.70;;;2.30;99.90;;;;;;4968896;28;20031;-75
2022/01/08 09:27:11;;;;;;;1.38;0.73;;;2.30;99.90;;;;;;4969972;28;20027;-75
2022/01/08 09:29:37;;;;;;;0.95;0.43;;;2.40;99.90;;;;;;4953327;28;20534;-75
2022/01/08 09:32:07;;;;;;;0.40;0.40;;;2.60;99.90;;;;;;4969484;28;20030;-75
2022/01/08 09:34:33;;;;;;;0.70;0.63;;;2.70;99.90;;;;;;4952163;28;20494;-75
2022/01/08 09:36:59;;;;;;;1.10;0.30;;;2.80;99.90;;;;;;4952473;28;20055;-74
2022/01/08 09:39:25;;;;;;;0.75;0.50;;;2.90;99.90;;;;;;4969954;28;20029;-75
2022/01/08 09:41:53;;;;;;;2.80;0.98;;;3.10;99.90;;;;;;4969673;28;20034;-75
2022/01/08 09:44:19;;;;;;;0.50;0.50;;;3.20;99.90;;;;;;4970167;28;20046;-74
2022/01/08 09:46:45;;;;;;;1.20;0.80;;;3.20;99.90;;;;;;4970673;28;20023;-75
2022/01/08 09:49:10;;;;;;;1.00;0.88;;;3.10;99.90;;;;;;4971605;28;20080;-75
2022/01/08 09:51:36;;;;;;;3.40;0.95;;;3.10;99.90;;;;;;4972638;28;20239;-75
2022/01/08 09:54:03;;;;;;;1.23;0.80;;;3.10;99.90;;;;;;4973493;28;20027;-74
2022/01/08 09:56:31;;;;;;;0.40;0.40;;;3.10;99.90;;;;;;4972064;28;20085;-75
2022/01/08 09:58:57;;;;;;;1.27;0.70;;;3.10;99.90;;;;;;4954565;28;20027;-75
2022/01/08 10:01:36;;;;;;;1.17;0.60;;;3.00;99.90;;;;;;4966009;28;20031;-76
2022/01/08 10:04:04;;;;;;;3.17;1.20;;;3.00;99.90;;;;;;4967770;28;20375;-74
2022/01/08 10:06:32;;;;;;;0.90;0.40;;;3.00;99.90;;;;;;4953671;28;20266;-75
2022/01/08 10:08:58;;;;;;;0.30;0.30;;;3.00;99.90;;;;;;4969516;28;20299;-75
2022/01/08 10:11:24;;;;;;;1.90;0.70;;;3.10;99.90;;;;;;4969619;28;20341;-75
2022/01/08 10:14:01;;;;;;;3.50;1.02;;;3.10;99.90;;;;;;4970959;28;20027;-75
2022/01/08 10:19:23;;;;;;;10.45;2.83;;;2.90;99.90;;;;;;4970950;28;20053;-75
2022/01/08 10:21:51;;;;;;;4.07;1.05;;;2.90;99.90;;;;;;4968353;28;20038;-75
2022/01/08 10:24:21;;;;;;;1.33;0.85;;;2.90;99.90;;;;;;4972479;28;20065;-75
2022/01/08 10:26:49;;;;;;;1.75;0.93;;;2.90;99.90;;;;;;4955829;28;20422;-76
2022/01/08 10:29:21;;;;;;;2.72;1.25;;;3.00;99.90;;;;;;4972721;28;20283;-77
2022/01/08 10:31:47;;;;;;;1.63;0.70;;;2.90;99.90;;;;;;4972916;28;20312;-76
2022/01/08 10:34:24;;;;;;;0.70;0.70;;;2.90;99.90;;;;;;4972407;28;20436;-76
2022/01/08 10:36:56;;;;;;;0.88;0.63;;;2.90;99.90;;;;;;4937936;29;20124;-79
2022/01/08 10:39:32;;;;;;;0.32;0.30;;;2.90;99.90;;;;;;4938183;29;20700;-80
2022/01/08 10:42:01;;;;;;;0.80;0.65;;;3.00;99.90;;;;;;4937680;29;20511;-83
2022/01/08 10:44:28;;;;;;;0.35;0.35;;;2.70;99.90;;;;;;4955815;29;20058;-78
2022/01/08 10:47:02;;;;;;;0.68;0.30;;;3.10;99.90;;;;;;4936221;29;20554;-76
2022/01/08 10:49:38;;;;;;;4.80;0.73;;;3.10;99.90;;;;;;4955127;29;20027;-75
2022/01/08 10:52:15;;;;;;;0.28;0.28;;;3.10;99.90;;;;;;4955238;29;20023;-77
2022/01/08 10:55:02;;;;;;;0.40;0.40;;;3.20;99.90;;;;;;4953413;29;20039;-76
2022/01/08 10:57:47;;;;;;;1.05;0.30;;;3.10;99.90;;;;;;4953189;29;20055;-76
2022/01/08 11:00:15;;;;;;;1.42;0.45;;;3.10;99.90;;;;;;4953568;29;20432;-76
2022/01/08 11:02:43;;;;;;;0.88;0.50;;;3.10;99.90;;;;;;4955165;28;20365;-76
2022/01/08 11:05:10;;;;;;;2.03;0.28;;;3.10;99.90;;;;;;4954677;28;20379;-75
2022/01/08 11:07:37;;;;;;;0.30;0.30;;;3.20;99.90;;;;;;4954623;28;20023;-77
2022/01/08 11:10:07;;;;;;;0.22;0.22;;;3.10;99.90;;;;;;4955430;28;20023;-75
2022/01/08 11:12:39;;;;;;;0.30;0.30;;;3.20;99.90;;;;;;4954349;28;20033;-74
2022/01/08 11:17:43;;;;;;;0.40;0.30;;;3.50;99.90;;;;;;4953209;28;20519;-75
2022/01/08 11:20:23;;;;;;;1.17;0.22;;;3.50;99.90;;;;;;4952332;28;20024;-74
2022/01/08 11:22:53;;;;;;;0.32;0.32;;;3.60;99.90;;;;;;4952647;28;20515;-75
2022/01/08 11:25:21;;;;;;;0.30;0.30;;;3.60;99.90;;;;;;4951399;28;20063;-74
2022/01/08 11:28:11;;;;;;;0.73;0.63;;;3.90;99.90;;;;;;4951604;28;20035;-74
2022/01/08 11:30:39;;;;;;;0.35;0.30;;;3.80;99.90;;;;;;4953801;28;20086;-75
2022/01/08 11:33:11;;;;;;;0.98;0.30;;;3.80;99.90;;;;;;4950935;29;20115;-74
2022/01/08 11:35:38;;;;;;;0.82;0.82;;;3.90;99.90;;;;;;4953286;28;20030;-75
2022/01/08 11:38:07;;;;;;;0.30;0.30;;;4.00;99.90;;;;;;4953603;28;20034;-74
2022/01/08 11:40:45;;;;;;;0.40;0.37;;;4.10;99.90;;;;;;4953885;28;20571;-74
2022/01/08 11:43:13;;;;;;;0.57;0.57;;;4.30;99.90;;;;;;4952538;28;20290;-74
2022/01/08 11:45:47;;;;;;;0.40;0.40;;;4.30;99.90;;;;;;4953713;28;20102;-74
2022/01/08 11:48:14;;;;;;;0.95;0.50;;;4.30;99.90;;;;;;4954849;28;20295;-77
2022/01/08 11:50:48;;;;;;;0.30;0.30;;;4.40;99.90;;;;;;4954281;28;20205;-74
2022/01/08 11:53:21;;;;;;;2.22;0.50;;;4.30;99.90;;;;;;4955720;28;20027;-75
2022/01/08 11:55:53;;;;;;;0.47;0.32;;;4.30;99.90;;;;;;4946360;28;20443;-76
2022/01/08 11:58:23;;;;;;;0.22;0.22;;;4.30;99.90;;;;;;4951412;29;20366;-79
2022/01/08 12:00:58;;;;;;;0.28;0.28;;;4.40;99.90;;;;;;4956523;29;20039;-77
2022/01/08 12:03:28;;;;;;;0.30;0.30;;;5.50;99.90;;;;;;4955991;28;20058;-76
2022/01/08 12:05:54;;;;;;;0.30;0.30;;;4.40;99.90;;;;;;4960768;29;20042;-77
2022/01/08 12:08:56;;;;;;;0.88;0.38;;;4.30;99.90;;;;;;4959069;29;20019;-77
2022/01/08 12:11:24;;;;;;;0.93;0.52;;;4.30;99.90;;;;;;4958972;29;20031;-75
2022/01/08 12:13:50;;;;;;;0.20;0.20;;;4.40;99.90;;;;;;4960208;28;20031;-76
2022/01/08 12:16:37;;;;;;;0.32;0.32;;;4.50;99.90;;;;;;4958015;29;20026;-78
2022/01/08 12:19:06;;;;;;;0.25;0.25;;;4.50;99.90;;;;;;4963721;28;20043;-75
2022/01/08 12:21:41;;;;;;;0.20;0.20;;;4.50;99.90;;;;;;4962914;28;20061;-75
2022/01/08 12:24:25;;;;;;;1.55;0.20;;;4.50;99.90;;;;;;4953195;29;20055;-74
2022/01/08 12:26:56;;;;;;;2.25;0.50;;;4.50;99.90;;;;;;4952393;29;20031;-75
2022/01/08 12:29:40;;;;;;;0.20;0.20;;;4.50;99.90;;;;;;4957552;29;20039;-77
2022/01/08 12:32:27;;;;;;;0.20;0.20;;;4.50;99.90;;;;;;4962835;28;20027;-77
2022/01/08 12:35:01;;;;;;;0.98;0.30;;;4.70;99.90;;;;;;4959346;28;20024;-78
2022/01/08 12:37:39;;;;;;;0.75;0.20;;;4.70;99.90;;;;;;4954856;28;20037;-74
2022/01/08 12:40:07;;;;;;;1.08;0.20;;;4.80;99.90;;;;;;4955062;28;20027;-75
2022/01/08 12:42:35;;;;;;;0.40;0.40;;;4.80;99.90;;;;;;4954028;29;20090;-75
2022/01/08 12:45:09;;;;;;;0.65;0.40;;;4.90;99.90;;;;;;4955256;29;20055;-77
2022/01/08 12:47:39;;;;;;;0.10;0.10;;;4.90;99.90;;;;;;4937534;29;20054;-75
2022/01/08 12:50:18;;;;;;;0.30;0.30;;;5.00;99.90;;;;;;4934929;29;20597;-75
2022/01/08 12:53:05;;;;;;;0.10;0.10;;;5.10;99.90;;;;;;4937669;29;20460;-75
2022/01/08 12:55:36;;;;;;;0.10;0.10;;;5.00;99.90;;;;;;4957338;29;20031;-73
2022/01/08 12:58:25;;;;;;;0.35;0.13;;;5.00;99.90;;;;;;4954707;29;20114;-75
2022/01/08 13:00:58;;;;;;;3.85;0.30;;;5.00;99.90;;;;;;4952178;29;20562;-75
2022/01/08 13:03:35;;;;;;;0.13;0.13;;;4.90;99.90;;;;;;4935672;29;20483;-78
2022/01/08 13:06:08;;;;;;;0.17;0.17;;;4.90;99.90;;;;;;4939402;29;20030;-75
2022/01/08 13:08:34;;;;;;;1.15;0.13;;;4.90;99.90;;;;;;4954984;29;20031;-77
2022/01/08 13:11:03;;;;;;;0.90;0.63;;;5.00;99.90;;;;;;4954581;29;20411;-74
2022/01/08 13:13:47;;;;;;;0.60;0.20;;;5.00;99.90;;;;;;4936648;29;20403;-77
2022/01/08 13:16:21;;;;;;;2.22;0.30;;;5.00;98.50;;;;;;4951793;29;20023;-75
2022/01/08 13:18:52;;;;;;;1.90;0.30;;;5.00;97.70;;;;;;4952699;29;20055;-75
2022/01/08 13:21:19;;;;;;;0.47;0.30;;;5.20;97.90;;;;;;4941188;28;20069;-74
2022/01/08 13:23:50;;;;;;;0.10;0.10;;;5.30;95.10;;;;;;4945388;28;20458;-75
2022/01/08 13:26:30;;;;;;;3.55;0.20;;;5.40;95.60;;;;;;4958609;28;20031;-76
2022/01/08 13:28:56;;;;;;;3.47;1.17;;;5.70;96.90;;;;;;4960626;28;20172;-77
2022/01/08 13:31:41;;;;;;;0.95;0.80;;;5.90;92.20;;;;;;4956193;28;20535;-76